Time;durP1;ratioP1;P1;durP2;ratioP2;P2;SDS_P1;SDS_P2;PMS_P1;PMS_P2;Temp;Humidity;BMP_temperature;BMP_pressure;BME280_temperature;BME280_humidity;BME280_pressure;Samples;Min_cycle;Max_cycle;Signal;HPM_P1;HPM_P2
2023/03/26 00:00:11;;;;;;;2.2;1.2;;;;;;;8.4;69.1;97810;;;;
2023/03/26 00:11:11;;;;;;;2.9;1.1;;;;;;;8.5;69.5;97820;;;;
2023/03/26 00:21:11;;;;;;;2.9;1.1;;;;;;;8.5;69.7;97830;;;;
2023/03/26 00:32:11;;;;;;;2.4;1.3;;;;;;;8.5;71;97810;;;;
2023/03/26 00:43:18;;;;;;;2.4;1.3;;;;;;;8.5;71.1;97800;;;;
2023/03/26 00:54:11;;;;;;;2.4;1.3;;;;;;;8.5;70.6;97790;;;;
2023/03/26 01:04:12;;;;;;;4;1.6;;;;;;;8.5;70.2;97780;;;;
2023/03/26 01:15:12;;;;;;;4;1.6;;;;;;;8.5;69.4;97780;;;;
2023/03/26 01:26:11;;;;;;;4;1.6;;;;;;;8.6;69.1;97780;;;;
2023/03/26 01:36:11;;;;;;;4.3;1.4;;;;;;;8.7;69.6;97810;;;;
2023/03/26 01:46:11;;;;;;;4.3;1.4;;;;;;;8.2;75.5;97810;;;;
2023/03/26 01:56:11;;;;;;;4.3;1.4;;;;;;;8.1;75.6;97770;;;;
2023/03/26 02:06:14;;;;;;;3.9;1.3;;;;;;;8;75.5;97750;;;;
2023/03/26 02:16:13;;;;;;;3.9;1.3;;;;;;;7.9;76;97760;;;;
2023/03/26 02:26:12;;;;;;;3.9;1.3;;;;;;;7.6;79.6;97760;;;;
2023/03/26 02:37:11;;;;;;;4.6;1.5;;;;;;;7.6;80;97750;;;;
2023/03/26 02:48:11;;;;;;;4.6;1.5;;;;;;;7.5;80.3;97750;;;;
2023/03/26 02:59:12;;;;;;;4.6;1.5;;;;;;;7.5;79.3;97750;;;;
2023/03/26 03:10:12;;;;;;;2.4;1.1;;;;;;;7.6;77.6;97750;;;;
2023/03/26 03:20:12;;;;;;;2.4;1.1;;;;;;;7.7;76.3;97740;;;;
2023/03/26 03:30:11;;;;;;;2.4;1.1;;;;;;;7.8;75.3;97740;;;;
2023/03/26 03:40:11;;;;;;;2.4;1.3;;;;;;;7.8;75.1;97740;;;;
2023/03/26 03:51:11;;;;;;;2.4;1.3;;;;;;;8;74.4;97760;;;;
2023/03/26 04:02:11;;;;;;;3.6;1.2;;;;;;;8.1;74.1;97750;;;;
2023/03/26 04:12:11;;;;;;;3.6;1.2;;;;;;;8.2;73.8;97750;;;;
2023/03/26 04:23:13;;;;;;;3.6;1.2;;;;;;;8.3;74.2;97750;;;;
2023/03/26 04:33:14;;;;;;;2.8;1.4;;;;;;;8.2;74.4;97740;;;;
2023/03/26 04:44:13;;;;;;;2.8;1.4;;;;;;;8.1;74.5;97730;;;;
2023/03/26 04:55:12;;;;;;;2.8;1.4;;;;;;;8.1;74.1;97720;;;;
2023/03/26 05:06:11;;;;;;;4.7;1.5;;;;;;;8.2;74.3;97730;;;;
2023/03/26 05:16:11;;;;;;;4.7;1.5;;;;;;;8.3;73.8;97740;;;;
2023/03/26 05:27:11;;;;;;;4.7;1.5;;;;;;;8.4;74.1;97740;;;;
2023/03/26 05:38:11;;;;;;;3.3;1.1;;;;;;;8.4;75.2;97730;;;;
2023/03/26 05:48:11;;;;;;;3.3;1.1;;;;;;;8.5;75.1;97720;;;;
2023/03/26 05:58:11;;;;;;;3.3;1.1;;;;;;;8.9;74;97720;;;;
2023/03/26 06:09:12;;;;;;;4.1;1.4;;;;;;;9.1;73;97720;;;;
2023/03/26 06:19:11;;;;;;;4.1;1.4;;;;;;;9.3;72.2;97720;;;;
2023/03/26 06:29:11;;;;;;;4.1;1.4;;;;;;;9.5;70.3;97720;;;;
2023/03/26 06:39:11;;;;;;;4.8;1.5;;;;;;;9.6;68.6;97730;;;;
2023/03/26 06:49:11;;;;;;;4.8;1.5;;;;;;;10;67.5;97740;;;;
2023/03/26 07:00:12;;;;;;;3;1.4;;;;;;;9.9;67.2;97740;;;;
2023/03/26 07:11:11;;;;;;;3;1.4;;;;;;;10.2;66.7;97740;;;;
2023/03/26 07:21:11;;;;;;;3;1.4;;;;;;;10.4;66.6;97740;;;;
2023/03/26 07:32:11;;;;;;;2.6;1.4;;;;;;;10.1;66.1;97730;;;;
2023/03/26 07:43:11;;;;;;;2.6;1.4;;;;;;;10.4;65.9;97720;;;;
2023/03/26 07:53:11;;;;;;;2.6;1.4;;;;;;;11.2;64.3;97720;;;;
2023/03/26 08:04:11;;;;;;;4.6;2;;;;;;;11.6;62.4;97710;;;;
2023/03/26 08:14:12;;;;;;;4.6;2;;;;;;;11.5;61.2;97710;;;;
2023/03/26 08:25:12;;;;;;;4.6;2;;;;;;;12.5;60.1;97700;;;;
2023/03/26 08:35:12;;;;;;;4.8;1.5;;;;;;;12.2;59.2;97700;;;;
2023/03/26 08:46:11;;;;;;;4.8;1.5;;;;;;;12.1;59.3;97710;;;;
2023/03/26 08:56:11;;;;;;;4.8;1.5;;;;;;;12.4;58.4;97710;;;;
2023/03/26 09:06:12;;;;;;;3.5;1.7;;;;;;;12.4;56.8;97700;;;;
2023/03/26 09:17:11;;;;;;;3.5;1.7;;;;;;;12.3;56.3;97690;;;;
2023/03/26 09:27:12;;;;;;;3.5;1.7;;;;;;;12.1;56.7;97690;;;;
2023/03/26 09:38:11;;;;;;;3.1;1.5;;;;;;;12.7;54.9;97690;;;;
2023/03/26 09:48:11;;;;;;;3.1;1.5;;;;;;;12.7;53.7;97690;;;;
2023/03/26 09:58:11;;;;;;;3.1;1.5;;;;;;;12.5;54.7;97670;;;;
2023/03/26 10:09:11;;;;;;;3.8;1.6;;;;;;;12.7;54.6;97660;;;;
2023/03/26 10:20:12;;;;;;;3.8;1.6;;;;;;;13.8;52.6;97640;;;;
2023/03/26 10:31:11;;;;;;;3.5;1.6;;;;;;;13.2;53.5;97650;;;;
2023/03/26 10:42:11;;;;;;;3.5;1.6;;;;;;;12.9;53.3;97640;;;;
2023/03/26 10:52:11;;;;;;;3.5;1.6;;;;;;;14.1;53.1;97620;;;;
2023/03/26 11:02:11;;;;;;;4.3;2;;;;;;;13.6;50.6;97630;;;;
2023/03/26 11:12:11;;;;;;;4.3;2;;;;;;;13.6;51.6;97620;;;;
2023/03/26 11:23:12;;;;;;;4.3;2;;;;;;;13.8;51.5;97610;;;;
2023/03/26 11:34:11;;;;;;;5.3;1.3;;;;;;;13.9;50;97600;;;;
2023/03/26 11:44:11;;;;;;;5.3;1.3;;;;;;;14;50.9;97600;;;;
2023/03/26 11:54:11;;;;;;;5.3;1.3;;;;;;;14.1;49.3;97590;;;;
2023/03/26 12:04:12;;;;;;;4;1.5;;;;;;;14.1;48.8;97580;;;;
2023/03/26 12:14:11;;;;;;;4;1.5;;;;;;;14.4;48.8;97580;;;;
2023/03/26 12:24:11;;;;;;;4;1.5;;;;;;;14;47.7;97570;;;;
2023/03/26 12:34:12;;;;;;;4.1;1.6;;;;;;;13.7;49.8;97560;;;;
2023/03/26 12:44:11;;;;;;;4.1;1.6;;;;;;;13.7;50.1;97550;;;;
2023/03/26 12:55:11;;;;;;;4.1;1.6;;;;;;;13.6;52.1;97550;;;;
2023/03/26 13:05:12;;;;;;;3.6;1.7;;;;;;;14.1;52.4;97520;;;;
2023/03/26 13:16:12;;;;;;;3.6;1.7;;;;;;;14.4;51.3;97500;;;;
2023/03/26 13:26:11;;;;;;;3.6;1.7;;;;;;;14.1;47.2;97500;;;;
2023/03/26 13:37:11;;;;;;;3.4;1.5;;;;;;;14;50.6;97490;;;;
2023/03/26 13:47:11;;;;;;;3.4;1.5;;;;;;;14.1;50.1;97470;;;;
2023/03/26 13:57:12;;;;;;;3.4;1.5;;;;;;;14.2;50.1;97470;;;;
2023/03/26 14:07:12;;;;;;;5.3;1.7;;;;;;;14.2;50;97460;;;;
2023/03/26 14:17:12;;;;;;;5.3;1.7;;;;;;;14.1;48.7;97460;;;;
2023/03/26 14:28:12;;;;;;;;;;;;;;;13.5;50.2;97460;;;;
2023/03/26 14:38:12;;;;;;;4.2;1.8;;;;;;;13.2;50.9;97450;;;;
2023/03/26 14:48:12;;;;;;;4.2;1.8;;;;;;;13.2;52.5;97460;;;;
2023/03/26 14:59:12;;;;;;;4.2;1.8;;;;;;;13.3;52.1;97450;;;;
2023/03/26 15:09:12;;;;;;;4.5;2.1;;;;;;;13.4;52.2;97440;;;;
2023/03/26 15:19:12;;;;;;;4.5;2.1;;;;;;;13.4;51.6;97440;;;;
2023/03/26 15:30:12;;;;;;;4.5;2.2;;;;;;;13.1;50.1;97430;;;;
2023/03/26 15:41:12;;;;;;;4.5;2.2;;;;;;;13;50.9;97430;;;;
2023/03/26 15:51:12;;;;;;;4.5;2.2;;;;;;;13.1;49.9;97430;;;;
2023/03/26 16:02:14;;;;;;;5.9;2.2;;;;;;;13.8;50.1;97400;;;;
2023/03/26 16:12:12;;;;;;;5.9;2.2;;;;;;;14.8;46.4;97400;;;;
2023/03/26 16:22:13;;;;;;;5.9;2.2;;;;;;;13.9;47.3;97390;;;;
2023/03/26 16:33:12;;;;;;;6.1;2.3;;;;;;;13.5;47.9;97390;;;;
2023/03/26 16:44:12;;;;;;;6.1;2.3;;;;;;;13.1;48.7;97390;;;;
2023/03/26 16:54:12;;;;;;;6.1;2.3;;;;;;;12.5;50;97390;;;;
2023/03/26 17:04:15;;;;;;;8.1;3.5;;;;;;;11.8;51.2;97390;;;;
2023/03/26 17:14:12;;;;;;;8.1;3.5;;;;;;;11.2;51.5;97380;;;;
2023/03/26 17:24:12;;;;;;;8.1;3.5;;;;;;;10.6;52.9;97390;;;;
2023/03/26 17:34:12;;;;;;;5.4;2.4;;;;;;;10.2;54.8;97390;;;;
2023/03/26 17:44:12;;;;;;;5.4;2.4;;;;;;;10;56;97380;;;;
2023/03/26 17:55:12;;;;;;;;;;;;;;;9.8;57.5;97390;;;;
2023/03/26 18:05:12;;;;;;;8.2;2.9;;;;;;;9.7;58.1;97390;;;;
2023/03/26 18:15:12;;;;;;;8.2;2.9;;;;;;;9.5;60;97390;;;;
2023/03/26 18:26:12;;;;;;;8.2;2.9;;;;;;;9.5;60.2;97380;;;;
2023/03/26 18:36:12;;;;;;;7.7;4.5;;;;;;;9.6;59.8;97380;;;;
2023/03/26 18:47:12;;;;;;;7.7;4.5;;;;;;;9.8;59.6;97370;;;;
2023/03/26 18:58:12;;;;;;;7.7;4.5;;;;;;;10;59.4;97380;;;;
2023/03/26 19:09:12;;;;;;;8.1;4.8;;;;;;;10.1;59.2;97380;;;;
2023/03/26 19:19:12;;;;;;;8.1;4.8;;;;;;;10.1;59.4;97370;;;;
2023/03/26 19:30:12;;;;;;;8.8;5.6;;;;;;;10.2;60.3;97380;;;;
2023/03/26 19:41:12;;;;;;;8.8;5.6;;;;;;;10.4;61.1;97380;;;;
2023/03/26 19:51:12;;;;;;;8.8;5.6;;;;;;;10.4;63.3;97380;;;;
2023/03/26 20:02:13;;;;;;;8;3.8;;;;;;;10.2;66.2;97380;;;;
2023/03/26 20:13:12;;;;;;;8;3.8;;;;;;;9.9;70.3;97370;;;;
2023/03/26 20:24:13;;;;;;;8;3.8;;;;;;;9.7;72.3;97380;;;;
2023/03/26 20:34:12;;;;;;;6.9;3.4;;;;;;;9.5;74.6;97370;;;;
2023/03/26 20:45:12;;;;;;;6.9;3.4;;;;;;;9.3;76.2;97350;;;;
2023/03/26 20:55:12;;;;;;;6.9;3.4;;;;;;;9.4;75.5;97330;;;;
2023/03/26 21:06:12;;;;;;;6.6;3.7;;;;;;;9.3;76.2;97300;;;;
2023/03/26 21:16:13;;;;;;;6.6;3.7;;;;;;;9.1;77.1;97290;;;;
2023/03/26 21:26:14;;;;;;;6.6;3.7;;;;;;;9.2;77.7;97280;;;;
2023/03/26 21:37:12;;;;;;;7.7;4.2;;;;;;;9;79;97280;;;;
2023/03/26 21:47:12;;;;;;;7.7;4.2;;;;;;;9;80;97300;;;;
2023/03/26 21:58:12;;;;;;;7.7;4.2;;;;;;;9;80.2;97310;;;;
2023/03/26 22:08:12;;;;;;;9.1;4.7;;;;;;;8.9;80.5;97290;;;;
2023/03/26 22:18:13;;;;;;;9.1;4.7;;;;;;;8.7;82.5;97270;;;;
2023/03/26 22:29:12;;;;;;;10.7;5.2;;;;;;;8.7;82.8;97270;;;;
2023/03/26 22:40:12;;;;;;;10.7;5.2;;;;;;;8.4;84.3;97260;;;;
2023/03/26 22:50:12;;;;;;;10.7;5.2;;;;;;;8.4;84.5;97250;;;;
2023/03/26 23:00:14;;;;;;;8;4.2;;;;;;;8.3;85;97230;;;;
2023/03/26 23:11:12;;;;;;;8;4.2;;;;;;;8;85.9;97200;;;;
2023/03/26 23:21:12;;;;;;;8;4.2;;;;;;;8.1;85.8;97200;;;;
2023/03/26 23:32:13;;;;;;;7.8;4;;;;;;;8.2;85.5;97200;;;;
2023/03/26 23:42:12;;;;;;;7.8;4;;;;;;;8.3;85;97190;;;;
2023/03/26 23:52:12;;;;;;;7.8;4;;;;;;;8.3;84.7;97180;;;;
